Time;durP1;ratioP1;P1;durP2;ratioP2;P2;SDS_P1;SDS_P2;PMS_P1;PMS_P2;Temp;Humidity;BMP_temperature;BMP_pressure;BME280_temperature;BME280_humidity;BME280_pressure;Samples;Min_cycle;Max_cycle;Signal;HPM_P1;HPM_P2
2021/05/19 05:01:27;;;;;;;2.30;1.27;;;;;;;21.91;40.93;94585.97;6184490;22;20376;-74
2021/05/19 05:03:53;;;;;;;4.57;3.40;;;;;;;23.11;39.78;94573.94;6184862;23;20473;-73
2021/05/19 05:06:19;;;;;;;3.78;3.10;;;;;;;22.75;40.74;94574.78;6239101;23;20007;-71
2021/05/19 05:08:44;;;;;;;3.33;2.20;;;;;;;23.25;39.49;94582.97;6236848;23;20418;-72
2021/05/19 05:11:10;;;;;;;1.40;1.30;;;;;;;24.38;38.23;94575.84;6239041;23;20015;-72
2021/05/19 05:13:35;;;;;;;2.45;1.02;;;;;;;24.39;38.46;94576.63;6236909;23;20009;-73
2021/05/19 05:16:01;;;;;;;1.65;1.02;;;;;;;25.00;36.93;94574.72;6238515;23;20388;-73
2021/05/19 05:18:26;;;;;;;1.88;0.90;;;;;;;24.39;37.52;94573.97;6238037;23;20050;-74
2021/05/19 05:20:51;;;;;;;0.90;0.90;;;;;;;23.60;39.48;94574.38;6209737;23;20005;-74
2021/05/19 05:23:17;;;;;;;1.33;0.80;;;;;;;24.66;39.35;94569.19;6210214;23;20031;-73
2021/05/19 05:25:42;;;;;;;1.05;0.90;;;;;;;24.00;40.10;94571.81;6207987;23;20015;-73
2021/05/19 05:28:08;;;;;;;3.60;1.00;;;;;;;26.25;37.93;94564.56;6210724;23;20013;-72
2021/05/19 05:30:33;;;;;;;3.20;1.20;;;;;;;23.11;42.74;94563.34;6207127;23;20005;-73
2021/05/19 05:32:59;;;;;;;2.13;1.48;;;;;;;25.85;39.48;94551.56;6209790;23;20009;-73
2021/05/19 05:35:24;;;;;;;1.25;0.90;;;;;;;22.77;44.29;94560.25;6208447;23;20035;-73
2021/05/19 05:37:50;;;;;;;1.63;0.98;;;;;;;24.65;40.77;94559.66;6209698;23;20008;-72
2021/05/19 05:40:15;;;;;;;0.98;0.88;;;;;;;26.60;36.92;94560.81;6209529;23;20000;-73
2021/05/19 05:42:41;;;;;;;2.00;0.95;;;;;;;26.17;37.89;94565.94;6209063;23;19997;-73
2021/05/19 05:45:07;;;;;;;2.03;0.70;;;;;;;25.18;37.26;94564.31;6209659;23;20008;-74
2021/05/19 05:47:33;;;;;;;0.70;0.70;;;;;;;24.57;40.82;94562.84;6208003;23;20009;-73
2021/05/19 05:50:02;;;;;;;2.38;0.88;;;;;;;26.56;37.70;94567.75;6209436;23;20005;-73
2021/05/19 05:52:27;;;;;;;1.33;0.75;;;;;;;26.25;37.95;94564.56;6208806;23;20004;-73
2021/05/19 05:54:53;;;;;;;1.13;0.68;;;;;;;26.63;36.61;94563.69;6209912;23;20406;-73
2021/05/19 05:57:18;;;;;;;1.33;0.80;;;;;;;26.25;36.21;94569.88;6208684;23;20055;-74
2021/05/19 05:59:44;;;;;;;2.10;0.70;;;;;;;25.59;37.27;94567.59;6208968;23;20008;-73
2021/05/19 06:02:09;;;;;;;1.63;0.70;;;;;;;26.74;36.19;94572.38;6209577;23;20017;-73
2021/05/19 06:04:35;;;;;;;2.45;1.10;;;;;;;26.50;34.69;94572.31;6206509;23;20016;-73
2021/05/19 06:07:00;;;;;;;2.80;1.08;;;;;;;25.63;36.12;94575.81;6209069;23;20004;-73
2021/05/19 06:09:25;;;;;;;2.90;0.95;;;;;;;26.61;35.58;94554.44;6206446;23;20011;-73
2021/05/19 06:11:51;;;;;;;1.45;0.82;;;;;;;27.45;34.15;94551.19;6209366;23;20001;-72
2021/05/19 06:14:18;;;;;;;6.63;0.85;;;;;;;28.70;32.37;94549.59;6205705;23;20008;-73
2021/05/19 06:16:45;;;;;;;1.35;0.90;;;;;;;28.91;31.23;94542.00;6207083;23;20028;-72
2021/05/19 06:19:10;;;;;;;2.15;0.90;;;;;;;26.63;35.05;94536.31;6206433;23;20005;-72
2021/05/19 06:21:36;;;;;;;1.63;0.68;;;;;;;24.86;35.71;94552.47;6207787;23;20011;-73
2021/05/19 06:24:01;;;;;;;2.88;0.73;;;;;;;28.02;32.79;94552.78;6208644;23;20004;-72
2021/05/19 06:26:27;;;;;;;1.83;0.77;;;;;;;27.84;31.88;94547.47;6206903;23;20015;-73
2021/05/19 06:28:52;;;;;;;2.50;0.88;;;;;;;23.63;41.47;94551.91;6209221;23;20401;-73
2021/05/19 06:31:18;;;;;;;1.52;0.75;;;;;;;21.06;44.99;94561.28;6205813;23;20005;-73
2021/05/19 06:33:43;;;;;;;2.67;1.00;;;;;;;22.23;44.87;94551.69;6208901;23;20009;-73
2021/05/19 06:36:09;;;;;;;1.02;0.82;;;;;;;20.15;48.95;94552.06;6207645;23;20012;-73
2021/05/19 06:38:34;;;;;;;3.17;1.05;;;;;;;19.87;52.94;94552.94;6208177;23;20005;-72
2021/05/19 06:41:00;;;;;;;19.27;3.05;;;;;;;19.80;53.38;94554.91;6181871;23;20001;-74
2021/05/19 06:43:25;;;;;;;1.95;1.00;;;;;;;24.12;44.87;94553.84;6206521;23;20005;-72
2021/05/19 06:45:51;;;;;;;1.80;0.80;;;;;;;26.57;38.18;94543.56;6209194;23;20001;-73
2021/05/19 06:48:16;;;;;;;2.15;0.90;;;;;;;26.45;38.34;94539.69;6205811;23;20004;-74
2021/05/19 06:50:42;;;;;;;3.30;0.90;;;;;;;26.88;37.30;94543.28;6209079;23;20004;-72
2021/05/19 06:53:07;;;;;;;1.73;0.80;;;;;;;28.40;35.48;94542.06;6206234;23;20426;-73
2021/05/19 06:55:33;;;;;;;2.90;0.70;;;;;;;24.58;41.35;94546.69;6208897;23;20011;-72
2021/05/19 06:57:58;;;;;;;1.85;0.70;;;;;;;21.05;47.67;94536.78;6180930;23;20418;-72
2021/05/19 07:00:24;;;;;;;0.95;0.73;;;;;;;20.85;48.60;94541.78;6207274;23;20001;-73
2021/05/19 07:02:49;;;;;;;1.30;0.82;;;;;;;20.47;52.69;94550.47;6208581;23;20013;-73
2021/05/19 07:05:15;;;;;;;0.85;0.70;;;;;;;19.90;54.93;94557.72;6206215;23;20004;-72
2021/05/19 07:07:41;;;;;;;1.08;0.70;;;;;;;19.71;55.43;94540.56;6208522;23;20004;-72
2021/05/19 07:10:07;;;;;;;2.25;0.80;;;;;;;18.89;57.77;94534.78;6205590;23;20058;-72
2021/05/19 07:12:33;;;;;;;2.63;1.05;;;;;;;18.33;58.28;94528.31;6208970;23;20005;-73
2021/05/19 07:15:02;;;;;;;1.23;0.80;;;;;;;18.97;59.20;94526.56;6206766;23;20493;-72
2021/05/19 07:17:27;;;;;;;1.33;0.90;;;;;;;19.19;57.55;94527.53;6207562;23;20001;-72
2021/05/19 07:19:53;;;;;;;1.20;0.90;;;;;;;19.33;57.03;94517.50;6208476;23;20075;-72
2021/05/19 07:22:18;;;;;;;2.42;1.08;;;;;;;19.55;55.29;94517.69;6206077;23;20335;-72
2021/05/19 07:24:45;;;;;;;1.20;0.85;;;;;;;19.32;54.29;94515.94;6208308;23;20000;-72
2021/05/19 07:27:11;;;;;;;3.60;0.90;;;;;;;19.88;55.11;94517.72;6206030;23;20081;-72
2021/05/19 07:29:36;;;;;;;4.00;1.15;;;;;;;19.65;56.85;94515.25;6208696;23;20005;-71
2021/05/19 07:32:02;;;;;;;1.42;0.88;;;;;;;19.31;56.46;94507.25;6206481;23;20004;-72
2021/05/19 07:34:27;;;;;;;3.35;0.88;;;;;;;18.97;55.41;94502.16;6208278;23;20054;-72
2021/05/19 07:36:53;;;;;;;1.85;0.80;;;;;;;18.36;59.48;94506.13;6207705;23;20005;-72
2021/05/19 07:39:19;;;;;;;1.33;0.90;;;;;;;18.25;58.91;94497.22;6206513;23;20005;-72
2021/05/19 07:41:44;;;;;;;3.20;1.10;;;;;;;17.22;60.68;94491.56;6208062;23;20001;-72
2021/05/19 07:44:10;;;;;;;2.47;0.80;;;;;;;18.01;56.18;94489.59;6205492;23;19997;-72
2021/05/19 07:46:36;;;;;;;2.10;0.90;;;;;;;18.44;56.09;94488.19;6208227;23;20000;-72
2021/05/19 07:49:02;;;;;;;3.10;0.80;;;;;;;18.89;55.08;94482.31;6179315;23;20036;-72
2021/05/19 07:51:28;;;;;;;1.38;1.00;;;;;;;19.62;51.82;94465.78;6207743;23;20008;-72
2021/05/19 07:53:54;;;;;;;4.28;0.65;;;;;;;19.53;51.57;94462.75;6179733;23;20008;-72
2021/05/19 07:56:28;;;;;;;1.50;0.77;;;;;;;19.60;53.51;94470.47;6207207;23;20339;-72
2021/05/19 07:59:04;;;;;;;1.20;0.80;;;;;;;19.32;54.16;94469.47;6207984;23;20074;-72
2021/05/19 08:03:58;;;;;;;2.05;0.95;;;;;;;19.04;53.20;94466.81;6208254;23;20012;-72
2021/05/19 08:06:23;;;;;;;1.83;1.25;;;;;;;19.08;55.79;94470.59;6205119;23;20708;-72
2021/05/19 08:08:48;;;;;;;4.72;0.90;;;;;;;19.06;55.47;94470.03;6208321;23;19997;-72
2021/05/19 08:11:17;;;;;;;1.60;1.27;;;;;;;18.71;56.30;94459.66;6206727;23;20020;-72
2021/05/19 08:13:44;;;;;;;1.02;0.70;;;;;;;19.28;56.93;94459.66;6207336;23;20076;-72
2021/05/19 08:16:10;;;;;;;1.15;0.90;;;;;;;19.44;55.48;94445.78;6208149;23;20004;-71
2021/05/19 08:18:36;;;;;;;2.00;0.80;;;;;;;19.96;52.61;94443.72;6205704;23;20027;-72
2021/05/19 08:21:01;;;;;;;1.00;0.65;;;;;;;20.25;56.55;94437.28;6208009;23;20457;-72
2021/05/19 08:23:27;;;;;;;2.60;0.60;;;;;;;19.62;56.21;94436.88;6205047;23;20011;-71
2021/05/19 08:25:52;;;;;;;1.15;0.80;;;;;;;19.09;56.11;94443.31;6208013;23;20010;-72
2021/05/19 08:28:18;;;;;;;1.17;0.70;;;;;;;19.28;56.02;94441.28;6206237;23;20004;-72
2021/05/19 08:30:43;;;;;;;0.93;0.70;;;;;;;18.44;55.63;94440.19;6207573;23;20013;-71
2021/05/19 08:33:09;;;;;;;3.08;0.98;;;;;;;19.35;56.15;94436.66;6180542;23;20008;-72
2021/05/19 08:35:34;;;;;;;1.35;0.70;;;;;;;19.05;55.47;94434.31;6206322;23;19997;-72
2021/05/19 08:38:00;;;;;;;1.77;0.68;;;;;;;19.43;54.39;94439.72;6208474;23;20350;-72
2021/05/19 08:40:29;;;;;;;1.58;0.60;;;;;;;20.57;52.80;94434.81;6204753;23;20028;-72
2021/05/19 08:42:55;;;;;;;0.70;0.50;;;;;;;20.87;50.98;94434.38;6207993;23;20008;-72
2021/05/19 08:45:21;;;;;;;1.02;0.50;;;;;;;21.00;50.12;94433.97;6205333;23;20000;-72
2021/05/19 08:47:46;;;;;;;11.80;2.05;;;;;;;20.20;52.71;94431.13;6207791;23;20016;-72
2021/05/19 08:50:12;;;;;;;1.63;0.50;;;;;;;20.40;53.72;94428.81;6155403;23;20012;-72
2021/05/19 08:52:38;;;;;;;1.42;0.60;;;;;;;20.87;53.37;94423.84;6207096;23;20027;-72
2021/05/19 08:55:14;;;;;;;1.38;0.50;;;;;;;20.93;55.20;94421.00;6207863;23;20016;-72
2021/05/19 08:57:41;;;;;;;0.80;0.60;;;;;;;20.40;49.78;94423.56;6207042;23;20008;-71
2021/05/19 09:00:08;;;;;;;1.02;0.60;;;;;;;21.99;51.62;94410.66;6209915;23;20411;-72
2021/05/19 09:02:34;;;;;;;0.60;0.40;;;;;;;21.48;47.49;94420.75;6206723;23;20012;-72
2021/05/19 09:05:00;;;;;;;3.03;0.60;;;;;;;21.04;40.89;94414.00;6209888;23;20181;-71
2021/05/19 09:07:25;;;;;;;3.47;0.50;;;;;;;21.62;46.88;94415.06;6207868;23;20001;-72
2021/05/19 09:09:51;;;;;;;4.10;0.73;;;;;;;21.68;46.88;94416.69;6208732;23;20005;-70
2021/05/19 09:12:18;;;;;;;1.23;0.65;;;;;;;20.92;47.90;94421.25;6210168;23;20012;-73
2021/05/19 09:15:01;;;;;;;1.23;0.70;;;;;;;22.09;48.34;94412.56;6207265;23;20393;-72
2021/05/19 09:17:29;;;;;;;2.55;0.80;;;;;;;21.03;47.87;94407.94;6187730;23;20004;-72
2021/05/19 09:20:04;;;;;;;2.20;0.60;;;;;;;22.03;45.81;94395.88;6206469;23;20036;-72
2021/05/19 09:22:33;;;;;;;2.10;0.60;;;;;;;21.73;45.66;94395.66;6183213;23;20520;-72
2021/05/19 09:24:58;;;;;;;3.28;0.90;;;;;;;21.43;43.78;94396.22;6208558;23;20008;-72
2021/05/19 09:27:24;;;;;;;1.90;0.50;;;;;;;22.46;42.09;94384.22;6208455;23;20058;-72
2021/05/19 09:29:51;;;;;;;1.88;0.60;;;;;;;22.48;44.20;94398.75;6208822;23;20071;-72
2021/05/19 09:32:18;;;;;;;1.70;0.80;;;;;;;22.36;43.98;94400.81;6207264;23;20078;-72
2021/05/19 09:34:45;;;;;;;1.35;0.50;;;;;;;22.19;40.74;94394.09;6209599;23;20009;-72
2021/05/19 09:37:25;;;;;;;1.58;0.35;;;;;;;21.80;44.43;94399.66;6207706;23;20004;-72
2021/05/19 09:40:00;;;;;;;1.98;0.77;;;;;;;21.73;42.57;94395.66;6208952;23;20019;-72
2021/05/19 09:42:27;;;;;;;2.13;0.50;;;;;;;22.38;44.20;94395.28;6209313;23;20426;-72
2021/05/19 09:44:55;;;;;;;2.00;0.60;;;;;;;22.85;44.40;94395.22;6206927;23;20004;-72
2021/05/19 09:47:38;;;;;;;3.63;1.00;;;;;;;22.30;45.35;94390.47;6209642;23;20087;-72
2021/05/19 09:50:05;;;;;;;3.00;0.80;;;;;;;23.19;45.27;94377.03;6206517;23;20093;-73
2021/05/19 09:52:31;;;;;;;3.03;0.65;;;;;;;23.13;46.55;94378.88;6209813;23;20001;-73
2021/05/19 09:55:10;;;;;;;4.07;1.02;;;;;;;21.67;45.79;94370.31;6207694;23;20353;-73
2021/05/19 09:57:45;;;;;;;2.45;0.88;;;;;;;22.62;47.11;94375.31;6208218;23;20004;-73
2021/05/19 10:00:12;;;;;;;0.98;0.50;;;;;;;21.85;43.25;94360.16;6209396;23;20005;-72
2021/05/19 10:02:38;;;;;;;0.82;0.52;;;;;;;22.20;42.67;94356.94;6206457;23;20009;-72
2021/05/19 10:05:18;;;;;;;1.48;0.70;;;;;;;21.85;42.26;94360.16;6209255;23;20000;-72
2021/05/19 10:07:43;;;;;;;0.82;0.50;;;;;;;22.20;43.20;94359.56;6207159;23;20009;-72
2021/05/19 10:10:09;;;;;;;2.35;0.80;;;;;;;23.12;46.88;94356.16;6208487;23;20078;-72
2021/05/19 10:12:39;;;;;;;1.45;0.60;;;;;;;23.07;43.39;94358.81;6209014;23;20501;-72
2021/05/19 10:15:13;;;;;;;3.08;0.65;;;;;;;22.99;41.32;94343.44;6181043;23;20443;-72
2021/05/19 10:17:43;;;;;;;2.13;0.50;;;;;;;23.18;42.58;94339.25;6183686;23;20008;-72
2021/05/19 10:20:11;;;;;;;4.22;0.57;;;;;;;23.39;43.35;94340.84;6206203;23;20458;-72
2021/05/19 10:22:39;;;;;;;1.35;0.50;;;;;;;23.65;45.04;94354.06;6183813;23;20390;-73
2021/05/19 10:25:06;;;;;;;0.47;0.47;;;;;;;23.68;43.69;94340.31;6180926;23;20075;-73
2021/05/19 10:27:47;;;;;;;1.95;0.60;;;;;;;23.90;42.83;94335.50;6208536;23;20394;-73
2021/05/19 10:30:33;;;;;;;1.55;0.80;;;;;;;22.99;41.95;94327.59;6209091;23;20031;-73
2021/05/19 10:32:58;;;;;;;3.70;0.60;;;;;;;22.56;46.66;94331.47;6183881;23;20015;-73
2021/05/19 10:35:31;;;;;;;3.00;1.10;;;;;;;22.31;45.99;94326.91;6208732;23;19996;-73
2021/05/19 10:38:17;;;;;;;1.33;0.80;;;;;;;22.73;42.97;94320.72;6207023;23;20410;-73
2021/05/19 10:40:56;;;;;;;1.73;0.70;;;;;;;22.91;48.22;94318.34;6184322;23;20352;-74
2021/05/19 10:43:22;;;;;;;1.35;0.47;;;;;;;23.01;43.78;94307.00;6209449;23;20028;-74
2021/05/19 10:45:49;;;;;;;2.92;0.70;;;;;;;22.69;48.35;94298.50;6179314;23;20044;-73
2021/05/19 10:48:35;;;;;;;2.58;1.08;;;;;;;21.49;44.17;94295.06;6209119;23;20012;-72
2021/05/19 10:51:40;;;;;;;3.00;0.70;;;;;;;23.02;44.48;94298.81;6206374;23;20016;-74
2021/05/19 11:00:15;;;;;;;1.45;0.60;;;;;;;22.65;44.81;94286.84;6206595;23;20108;-74
2021/05/19 11:02:52;;;;;;;1.92;0.80;;;;;;;22.06;45.35;94287.19;6056153;23;20023;-73
2021/05/19 11:05:17;;;;;;;2.65;0.60;;;;;;;22.73;45.73;94273.19;6058467;23;20359;-74
2021/05/19 11:08:06;;;;;;;2.17;0.63;;;;;;;22.51;45.05;94266.22;6139587;23;20361;-74
2021/05/19 11:10:50;;;;;;;1.63;0.50;;;;;;;22.97;43.74;94275.03;6208256;23;20035;-71
2021/05/19 11:13:18;;;;;;;2.15;0.80;;;;;;;23.18;45.50;94275.84;6208341;23;20012;-73
2021/05/19 11:20:57;;;;;;;3.55;0.80;;;;;;;23.71;39.49;94269.16;6205392;23;20013;-73
2021/05/19 11:23:22;;;;;;;1.35;0.70;;;;;;;22.72;39.98;94258.38;6208867;23;20017;-71
2021/05/19 11:25:48;;;;;;;1.10;0.50;;;;;;;23.71;41.17;94261.22;6206067;23;20019;-73
2021/05/19 11:28:14;;;;;;;2.97;0.60;;;;;;;24.30;43.82;94249.91;6196105;23;20052;-73
2021/05/19 11:30:40;;;;;;;1.25;0.50;;;;;;;23.02;40.82;94243.31;6206052;23;20458;-73
2021/05/19 11:33:07;;;;;;;1.52;0.60;;;;;;;22.99;41.54;94241.22;6205342;23;20000;-73
2021/05/19 11:35:33;;;;;;;2.13;0.65;;;;;;;23.75;42.37;94232.38;6207946;23;20011;-74
2021/05/19 11:38:05;;;;;;;3.17;0.70;;;;;;;24.05;44.12;94240.19;6205556;23;20000;-73
2021/05/19 11:40:41;;;;;;;1.35;0.80;;;;;;;24.56;43.68;94232.81;6207498;23;20827;-73
2021/05/19 11:43:06;;;;;;;1.85;0.60;;;;;;;23.48;40.30;94220.28;6206890;23;20008;-73
2021/05/19 11:45:32;;;;;;;1.00;0.50;;;;;;;23.97;43.95;94225.69;6206764;23;20461;-73
2021/05/19 11:47:58;;;;;;;2.10;0.80;;;;;;;24.39;44.59;94217.28;6207624;23;20019;-73
2021/05/19 11:50:27;;;;;;;2.20;0.77;;;;;;;23.01;42.56;94214.53;6204176;23;20015;-74
2021/05/19 11:53:05;;;;;;;1.35;0.60;;;;;;;23.49;41.52;94210.50;6208024;23;20009;-73
2021/05/19 11:55:33;;;;;;;3.08;0.43;;;;;;;23.53;41.33;94201.78;6205436;23;20011;-73
2021/05/19 11:58:18;;;;;;;2.70;0.60;;;;;;;24.11;42.59;94199.44;6207395;23;20009;-73
2021/05/19 12:00:47;;;;;;;1.48;0.68;;;;;;;24.10;41.73;94184.59;6207303;23;20024;-74
2021/05/19 12:03:13;;;;;;;1.48;0.70;;;;;;;24.00;45.01;94196.03;6204502;23;20624;-73
2021/05/19 12:05:47;;;;;;;1.40;0.70;;;;;;;24.21;44.34;94185.38;6207993;23;20616;-74
2021/05/19 12:08:13;;;;;;;1.15;0.90;;;;;;;23.92;42.89;94185.22;6205050;23;20007;-73
2021/05/19 12:10:39;;;;;;;1.35;0.70;;;;;;;24.17;42.51;94179.03;6206876;23;20004;-73
2021/05/19 12:13:05;;;;;;;1.75;0.80;;;;;;;22.91;42.50;94182.84;6205843;23;20079;-73
2021/05/19 12:15:34;;;;;;;3.22;0.77;;;;;;;23.42;41.84;94183.56;6207950;23;20012;-73
2021/05/19 12:18:00;;;;;;;1.65;0.88;;;;;;;24.22;44.11;94168.41;6207131;23;20028;-73
2021/05/19 12:20:26;;;;;;;1.50;0.68;;;;;;;23.72;43.31;94166.81;6205517;23;20143;-74
2021/05/19 12:22:55;;;;;;;2.35;0.70;;;;;;;23.76;42.37;94165.19;6207915;23;20505;-74
2021/05/19 12:25:21;;;;;;;1.15;0.60;;;;;;;23.85;40.72;94160.91;6178582;23;20031;-73
2021/05/19 12:27:50;;;;;;;1.50;0.60;;;;;;;23.67;42.29;94156.22;6181305;23;20013;-73
2021/05/19 12:30:16;;;;;;;2.10;0.65;;;;;;;23.16;40.55;94156.38;6199443;23;20397;-73
2021/05/19 12:32:52;;;;;;;3.88;0.65;;;;;;;23.45;38.29;94154.72;6180646;23;20094;-76
2021/05/19 12:35:18;;;;;;;2.33;0.60;;;;;;;23.61;37.57;94152.81;6178479;23;20047;-76
2021/05/19 12:37:47;;;;;;;1.67;0.40;;;;;;;23.50;39.57;94149.41;6205667;23;20004;-76
2021/05/19 12:40:15;;;;;;;1.08;0.70;;;;;;;24.06;38.90;94142.00;6207138;23;20079;-75
2021/05/19 12:42:55;;;;;;;1.40;0.70;;;;;;;23.96;37.80;94128.03;6205677;23;20544;-77
2021/05/19 12:45:31;;;;;;;0.70;0.50;;;;;;;23.54;36.61;94133.81;6207477;23;20075;-76
2021/05/19 12:48:09;;;;;;;2.72;0.60;;;;;;;23.13;36.73;94135.75;6179456;23;20009;-75
2021/05/19 12:50:38;;;;;;;1.73;0.60;;;;;;;23.75;38.28;94105.41;6205678;23;20055;-76
2021/05/19 12:53:04;;;;;;;0.98;0.60;;;;;;;24.61;38.86;94124.16;6207788;23;20058;-76
2021/05/19 12:55:29;;;;;;;1.17;0.50;;;;;;;24.88;38.82;94119.19;6204416;23;20005;-74
2021/05/19 12:58:05;;;;;;;1.92;0.52;;;;;;;24.37;36.52;94123.31;6207470;23;20000;-74
2021/05/19 13:00:31;;;;;;;3.20;0.60;;;;;;;24.62;37.24;94115.16;6204903;23;20059;-75
2021/05/19 13:02:57;;;;;;;1.05;0.40;;;;;;;24.91;35.66;94118.63;6206725;23;20012;-74
2021/05/19 13:05:23;;;;;;;2.60;0.30;;;;;;;24.42;37.40;94104.72;6207019;23;20335;-74
2021/05/19 13:07:50;;;;;;;1.10;0.50;;;;;;;24.48;36.01;94096.47;6206076;23;20008;-75
2021/05/19 13:10:33;;;;;;;3.53;0.57;;;;;;;24.35;36.17;94072.47;6180860;23;20079;-75
2021/05/19 13:13:10;;;;;;;3.15;0.82;;;;;;;24.34;36.70;94094.75;6157509;23;20000;-77
2021/05/19 13:15:49;;;;;;;1.02;0.75;;;;;;;23.28;36.29;94096.06;6207536;23;20005;-76
2021/05/19 13:21:01;;;;;;;1.55;0.43;;;;;;;24.55;36.76;94091.63;6179577;23;20019;-76
2021/05/19 13:23:48;;;;;;;3.20;0.60;;;;;;;24.42;38.38;94073.75;6208102;23;20000;-76
2021/05/19 13:26:15;;;;;;;0.45;0.35;;;;;;;24.13;37.00;94075.56;6178777;23;20009;-76
2021/05/19 13:28:44;;;;;;;0.85;0.40;;;;;;;23.82;37.38;94080.25;6207501;23;20621;-77
2021/05/19 13:31:10;;;;;;;2.63;0.40;;;;;;;23.92;37.04;94079.41;6206726;23;20521;-76
2021/05/19 13:38:45;;;;;;;0.68;0.40;;;;;;;24.58;36.04;94080.50;6205234;23;20008;-76
2021/05/19 13:41:11;;;;;;;0.60;0.40;;;;;;;23.89;35.38;94083.34;6181362;23;20004;-76
2021/05/19 13:43:37;;;;;;;2.00;0.50;;;;;;;23.88;35.11;94081.00;6205561;23;20008;-75
2021/05/19 13:46:03;;;;;;;2.55;0.43;;;;;;;23.78;35.28;94070.47;6209671;23;20453;-77
2021/05/19 13:48:29;;;;;;;0.90;0.38;;;;;;;24.01;34.87;94065.31;6181936;23;20012;-75
2021/05/19 13:50:54;;;;;;;3.85;0.50;;;;;;;24.12;35.17;94069.47;6181773;23;20009;-74
2021/05/19 13:53:20;;;;;;;2.47;0.60;;;;;;;23.99;37.30;94074.56;6209624;23;20012;-75
2021/05/19 13:55:45;;;;;;;2.25;0.40;;;;;;;23.41;36.21;94063.78;6206303;23;20063;-74
2021/05/19 13:58:12;;;;;;;2.13;0.52;;;;;;;23.70;36.49;94065.75;6209714;23;20001;-74
2021/05/19 14:00:37;;;;;;;1.90;0.60;;;;;;;24.04;35.57;94063.97;6206228;23;20008;-74
2021/05/19 14:03:03;;;;;;;1.92;0.70;;;;;;;23.80;34.50;94063.03;6209280;23;20028;-73
2021/05/19 14:05:29;;;;;;;2.53;0.63;;;;;;;24.08;35.59;94057.06;6207108;23;20004;-74
2021/05/19 14:07:55;;;;;;;2.67;0.50;;;;;;;23.80;35.15;94057.75;6209153;23;20316;-74
2021/05/19 14:10:23;;;;;;;2.72;0.60;;;;;;;23.56;39.60;94053.16;6208800;23;20011;-75
2021/05/19 14:12:56;;;;;;;1.02;0.45;;;;;;;23.31;36.19;94045.31;6207045;23;20431;-74
2021/05/19 14:16:09;;;;;;;0.88;0.40;;;;;;;23.63;37.14;94047.56;6209605;23;20000;-75
2021/05/19 14:21:19;;;;;;;2.38;0.60;;;;;;;23.82;36.40;94053.00;6208696;23;20004;-75
2021/05/19 14:29:06;;;;;;;0.90;0.40;;;;;;;23.94;32.94;94032.28;6208658;23;20016;-73
2021/05/19 14:31:32;;;;;;;1.15;0.55;;;;;;;24.22;34.50;94039.50;6207308;23;20407;-74
2021/05/19 14:33:57;;;;;;;0.60;0.30;;;;;;;24.34;35.49;94034.63;6208297;23;20009;-74
2021/05/19 14:54:03;;;;;;;2.63;0.50;;;;;;;24.54;32.04;94029.13;6159791;23;20040;-75
2021/05/19 15:00:38;;;;;;;0.50;0.30;;;;;;;23.57;35.86;94015.06;6205788;23;20011;-74
2021/05/19 15:03:03;;;;;;;3.22;0.60;;;;;;;23.48;33.13;94008.78;6208687;23;20008;-74
2021/05/19 15:05:29;;;;;;;2.25;0.77;;;;;;;23.54;35.98;94014.81;6205833;23;20077;-74
2021/05/19 15:07:54;;;;;;;2.33;0.70;;;;;;;23.42;36.91;94012.50;6208411;23;20001;-74
2021/05/19 15:10:20;;;;;;;1.70;0.50;;;;;;;22.99;34.67;94003.44;6207000;23;20005;-75
2021/05/19 15:12:45;;;;;;;2.10;0.47;;;;;;;23.18;35.78;94011.56;6207750;23;20043;-74
2021/05/19 15:15:12;;;;;;;2.58;0.85;;;;;;;23.11;34.52;94005.78;6208202;23;20012;-75
2021/05/19 15:17:38;;;;;;;1.92;0.50;;;;;;;22.83;34.90;94004.53;6206460;23;19997;-74
2021/05/19 15:20:04;;;;;;;1.25;0.50;;;;;;;22.92;35.47;94002.16;6207965;23;20009;-74
2021/05/19 15:22:30;;;;;;;1.63;0.63;;;;;;;22.78;34.06;93994.00;6205922;23;20500;-73
2021/05/19 15:24:55;;;;;;;1.88;0.52;;;;;;;22.81;33.92;93990.84;6181827;23;20004;-75
2021/05/19 15:27:21;;;;;;;6.13;0.60;;;;;;;22.51;40.88;93994.31;6206175;23;20348;-75
2021/05/19 15:29:46;;;;;;;1.05;0.52;;;;;;;22.56;34.56;93985.59;6181022;23;20012;-75
2021/05/19 15:32:12;;;;;;;5.68;1.02;;;;;;;22.53;35.03;93994.84;6207667;23;20332;-75
2021/05/19 15:34:37;;;;;;;3.25;0.65;;;;;;;22.62;32.36;93991.66;6206780;23;20391;-74
2021/05/19 15:37:03;;;;;;;1.33;0.60;;;;;;;22.57;33.45;93985.31;6209062;23;20039;-75
2021/05/19 15:39:29;;;;;;;3.17;0.63;;;;;;;22.50;34.22;93984.84;6205330;23;20011;-74
2021/05/19 15:41:54;;;;;;;4.30;1.00;;;;;;;22.56;34.47;93981.13;6208283;23;20000;-75
2021/05/19 15:44:20;;;;;;;0.93;0.50;;;;;;;22.56;34.97;93975.03;6206192;23;20011;-74
2021/05/19 15:46:45;;;;;;;3.20;0.57;;;;;;;22.71;31.64;93967.09;6208943;23;20425;-70
2021/05/19 15:49:11;;;;;;;3.70;0.60;;;;;;;22.74;31.98;93968.41;6206511;23;20027;-73
2021/05/19 15:51:36;;;;;;;1.33;0.50;;;;;;;22.73;31.69;93977.41;6207769;23;20377;-71
2021/05/19 15:54:03;;;;;;;4.13;0.55;;;;;;;23.02;31.31;93962.50;6207597;23;20008;-71
2021/05/19 15:56:28;;;;;;;3.85;0.50;;;;;;;23.09;32.23;93970.88;6206185;23;20005;-72
2021/05/19 15:58:54;;;;;;;1.88;0.50;;;;;;;22.84;32.62;93969.16;6206658;23;20013;-72
2021/05/19 16:01:20;;;;;;;3.50;0.47;;;;;;;23.06;32.18;93961.66;6205760;23;20689;-71
2021/05/19 16:03:46;;;;;;;2.63;0.45;;;;;;;23.01;30.80;93956.41;6207884;23;20043;-72
2021/05/19 16:06:12;;;;;;;7.72;0.60;;;;;;;22.82;31.06;93954.66;6205012;23;20430;-70
2021/05/19 16:08:39;;;;;;;0.70;0.50;;;;;;;22.87;30.79;93954.63;6181031;23;20434;-70
2021/05/19 16:11:05;;;;;;;3.08;0.50;;;;;;;22.51;32.67;93952.09;6180516;23;20016;-72
2021/05/19 16:13:32;;;;;;;5.72;0.90;;;;;;;22.33;33.06;93949.22;6206529;23;20457;-74
2021/05/19 16:15:57;;;;;;;1.92;0.80;;;;;;;21.96;34.95;93949.59;6208064;23;20004;-72
2021/05/19 16:18:23;;;;;;;1.92;0.47;;;;;;;21.77;35.00;93946.63;6205895;23;20068;-71
2021/05/19 16:20:48;;;;;;;1.55;0.50;;;;;;;21.77;35.16;93956.41;6208549;23;20001;-72
2021/05/19 16:23:13;;;;;;;1.77;0.52;;;;;;;21.71;35.01;93952.97;6205290;23;20008;-72
2021/05/19 16:25:39;;;;;;;1.80;0.63;;;;;;;21.52;36.73;93957.97;6208224;23;20585;-72
2021/05/19 16:28:05;;;;;;;5.32;0.60;;;;;;;21.19;38.71;93955.81;6206144;23;20000;-73
2021/05/19 16:31:00;;;;;;;2.63;0.63;;;;;;;20.88;39.07;93949.66;6206901;23;20012;-74
2021/05/19 16:40:20;;;;;;;7.10;6.05;;;;;;;20.62;39.85;93942.72;6204937;23;20409;-74
2021/05/19 16:42:45;;;;;;;1.88;1.20;;;;;;;20.61;39.92;93948.25;6182066;23;20015;-74
2021/05/19 16:45:11;;;;;;;2.92;0.85;;;;;;;20.58;40.43;93954.03;6205753;23;20008;-74
2021/05/19 16:47:37;;;;;;;3.45;0.70;;;;;;;20.14;42.25;93895.63;6181760;23;20450;-74
2021/05/19 16:56:46;;;;;;;5.18;0.52;;;;;;;19.79;49.02;93981.13;6206546;23;20020;-76
2021/05/19 16:59:12;;;;;;;3.78;0.43;;;;;;;19.91;43.80;93978.31;6207747;23;20427;-75
2021/05/19 17:06:47;;;;;;;2.88;0.60;;;;;;;20.17;43.47;93966.94;6175724;23;20016;-75
2021/05/19 17:09:13;;;;;;;1.05;0.47;;;;;;;20.40;45.08;93969.19;6177477;23;20009;-75
2021/05/19 17:11:40;;;;;;;3.10;0.70;;;;;;;20.36;47.06;93965.50;6176963;23;20005;-76
2021/05/19 17:14:06;;;;;;;2.72;0.70;;;;;;;20.20;46.50;93961.16;6175943;23;20013;-72
2021/05/19 17:16:32;;;;;;;1.13;0.63;;;;;;;20.36;46.74;93965.50;6178081;23;20504;-72
2021/05/19 17:18:59;;;;;;;1.67;0.75;;;;;;;20.22;47.83;93963.53;6176051;23;20009;-74
2021/05/19 17:21:24;;;;;;;12.00;1.23;;;;;;;20.27;48.49;93967.03;6179340;23;20016;-73
2021/05/19 17:23:50;;;;;;;1.80;0.50;;;;;;;20.30;48.11;93966.50;6177049;23;20005;-73
2021/05/19 17:26:16;;;;;;;36.30;1.70;;;;;;;20.16;48.89;93970.63;6153696;23;20012;-74
2021/05/19 17:28:41;;;;;;;4.53;0.90;;;;;;;19.99;49.80;93962.88;6178173;23;20005;-76
2021/05/19 17:31:06;;;;;;;14.05;1.30;;;;;;;19.90;50.13;93956.53;6178599;23;20063;-71
2021/05/19 17:33:32;;;;;;;3.85;1.10;;;;;;;19.84;50.49;93951.47;6179265;23;20059;-72
2021/05/19 17:35:58;;;;;;;1.35;0.88;;;;;;;19.67;51.42;93948.19;6177177;23;20009;-72
2021/05/19 17:38:24;;;;;;;5.38;1.33;;;;;;;19.75;50.96;93939.81;6179650;23;20005;-71
2021/05/19 17:40:49;;;;;;;2.22;1.55;;;;;;;19.54;51.91;93938.09;6176692;23;20001;-76
2021/05/19 17:43:15;;;;;;;2.10;0.90;;;;;;;19.38;52.35;93931.91;6179951;23;20020;-72
2021/05/19 17:45:40;;;;;;;11.80;1.40;;;;;;;19.46;51.98;93924.38;6177469;23;20387;-72
2021/05/19 17:48:06;;;;;;;6.72;1.08;;;;;;;19.24;52.60;93926.25;6179707;23;20009;-71